sensor_id;sensor_type;location;lat;lon;timestamp;pressure;altitude;pressure_sealevel;temperature;humidity
11041;BME280;5573;49.592;8.662;2022-08-18T00:00:21;99476.59;;;22.24;86.67
11041;BME280;5573;49.592;8.662;2022-08-18T00:03:09;99480.75;;;22.20;88.97
11041;BME280;5573;49.592;8.662;2022-08-18T00:06:18;99454.31;;;22.02;90.38
11041;BME280;5573;49.592;8.662;2022-08-18T00:09:08;99485.88;;;22.21;92.04
11041;BME280;5573;49.592;8.662;2022-08-18T00:11:57;99484.81;;;22.19;92.54
11041;BME280;5573;49.592;8.662;2022-08-18T00:14:47;99468.66;;;21.95;94.52
11041;BME280;5573;49.592;8.662;2022-08-18T00:17:36;99466.47;;;21.99;94.38
11041;BME280;5573;49.592;8.662;2022-08-18T00:20:24;99485.44;;;22.23;94.49
11041;BME280;5573;49.592;8.662;2022-08-18T00:23:12;99479.84;;;22.23;94.89
11041;BME280;5573;49.592;8.662;2022-08-18T00:26:00;99484.50;;;22.17;95.85
11041;BME280;5573;49.592;8.662;2022-08-18T00:28:51;99475.31;;;22.16;96.26
11041;BME280;5573;49.592;8.662;2022-08-18T00:31:39;99475.47;;;22.12;96.62
11041;BME280;5573;49.592;8.662;2022-08-18T00:34:27;99479.06;;;22.13;97.05
11041;BME280;5573;49.592;8.662;2022-08-18T00:37:19;99475.47;;;22.12;97.38
11041;BME280;5573;49.592;8.662;2022-08-18T00:40:10;99484.84;;;22.09;98.21
11041;BME280;5573;49.592;8.662;2022-08-18T00:43:00;99478.28;;;21.94;99.20
11041;BME280;5573;49.592;8.662;2022-08-18T00:45:50;99468.50;;;22.08;98.25
11041;BME280;5573;49.592;8.662;2022-08-18T00:48:38;99460.25;;;22.04;97.67
11041;BME280;5573;49.592;8.662;2022-08-18T00:51:44;99456.97;;;22.06;96.57
11041;BME280;5573;49.592;8.662;2022-08-18T00:54:34;99464.28;;;22.03;96.58
11041;BME280;5573;49.592;8.662;2022-08-18T00:57:26;99470.66;;;21.95;97.22
11041;BME280;5573;49.592;8.662;2022-08-18T01:00:15;99461.50;;;21.85;98.35
11041;BME280;5573;49.592;8.662;2022-08-18T01:03:09;99458.88;;;21.72;99.92
11041;BME280;5573;49.592;8.662;2022-08-18T01:06:03;99468.34;;;21.84;98.39
11041;BME280;5573;49.592;8.662;2022-08-18T01:08:54;99471.94;;;21.75;99.06
11041;BME280;5573;49.592;8.662;2022-08-18T01:11:42;99476.59;;;21.69;99.40
11041;BME280;5573;49.592;8.662;2022-08-18T01:14:30;99482.03;;;21.72;99.09
11041;BME280;5573;49.592;8.662;2022-08-18T01:17:19;99472.88;;;21.72;98.57
11041;BME280;5573;49.592;8.662;2022-08-18T01:20:29;99475.34;;;21.70;98.82
11041;BME280;5573;49.592;8.662;2022-08-18T01:26:28;99478.47;;;21.44;100.00
11041;BME280;5573;49.592;8.662;2022-08-18T01:29:17;99474.09;;;21.43;100.00
11041;BME280;5573;49.592;8.662;2022-08-18T01:32:06;99483.38;;;21.40;100.00
11041;BME280;5573;49.592;8.662;2022-08-18T01:34:54;99480.72;;;21.37;100.00
11041;BME280;5573;49.592;8.662;2022-08-18T01:37:42;99483.53;;;21.27;100.00
11041;BME280;5573;49.592;8.662;2022-08-18T01:40:31;99470.47;;;21.34;100.00
11041;BME280;5573;49.592;8.662;2022-08-18T01:43:39;99470.44;;;21.24;100.00
11041;BME280;5573;49.592;8.662;2022-08-18T01:46:30;99476.03;;;21.24;100.00
11041;BME280;5573;49.592;8.662;2022-08-18T01:49:19;99474.78;;;21.16;100.00
11041;BME280;5573;49.592;8.662;2022-08-18T01:52:08;99438.41;;;20.98;100.00
11041;BME280;5573;49.592;8.662;2022-08-18T01:54:56;99461.41;;;21.11;100.00
11041;BME280;5573;49.592;8.662;2022-08-18T01:57:46;99467.19;;;21.17;99.91
11041;BME280;5573;49.592;8.662;2022-08-18T02:00:34;99434.97;;;20.94;99.82
11041;BME280;5573;49.592;8.662;2022-08-18T02:03:23;99463.13;;;21.08;100.00
11041;BME280;5573;49.592;8.662;2022-08-18T02:06:14;99467.78;;;21.11;99.50
11041;BME280;5573;49.592;8.662;2022-08-18T02:09:18;99455.63;;;20.96;100.00
11041;BME280;5573;49.592;8.662;2022-08-18T02:12:10;99461.69;;;21.04;100.00
11041;BME280;5573;49.592;8.662;2022-08-18T02:15:00;99457.34;;;20.94;100.00
11041;BME280;5573;49.592;8.662;2022-08-18T02:17:48;99461.09;;;21.09;100.00
11041;BME280;5573;49.592;8.662;2022-08-18T02:20:36;99462.66;;;21.10;99.75
11041;BME280;5573;49.592;8.662;2022-08-18T02:23:24;99458.44;;;20.96;100.00
11041;BME280;5573;49.592;8.662;2022-08-18T02:26:15;99459.84;;;21.10;100.00
11041;BME280;5573;49.592;8.662;2022-08-18T02:29:04;99456.28;;;21.09;100.00
11041;BME280;5573;49.592;8.662;2022-08-18T02:31:54;99454.69;;;20.99;100.00
11041;BME280;5573;49.592;8.662;2022-08-18T02:34:42;99453.63;;;21.06;100.00
11041;BME280;5573;49.592;8.662;2022-08-18T02:37:30;99459.22;;;21.06;100.00
11041;BME280;5573;49.592;8.662;2022-08-18T02:40:18;99445.84;;;21.01;100.00
11041;BME280;5573;49.592;8.662;2022-08-18T02:43:06;99449.91;;;21.00;100.00
11041;BME280;5573;49.592;8.662;2022-08-18T02:45:55;99448.31;;;20.89;100.00
11041;BME280;5573;49.592;8.662;2022-08-18T02:48:45;99449.53;;;20.88;100.00
11041;BME280;5573;49.592;8.662;2022-08-18T02:51:34;99439.56;;;20.78;100.00
11041;BME280;5573;49.592;8.662;2022-08-18T02:54:23;99448.91;;;20.84;100.00
11041;BME280;5573;49.592;8.662;2022-08-18T02:57:12;99449.38;;;20.83;100.00
11041;BME280;5573;49.592;8.662;2022-08-18T03:00:00;99452.03;;;20.86;100.00
11041;BME280;5573;49.592;8.662;2022-08-18T03:02:50;99448.13;;;20.75;100.00
11041;BME280;5573;49.592;8.662;2022-08-18T03:05:41;99448.75;;;20.79;100.00
11041;BME280;5573;49.592;8.662;2022-08-18T03:08:29;99444.72;;;20.80;100.00
11041;BME280;5573;49.592;8.662;2022-08-18T03:11:21;99445.66;;;20.77;100.00
11041;BME280;5573;49.592;8.662;2022-08-18T03:14:09;99445.13;;;20.69;100.00
11041;BME280;5573;49.592;8.662;2022-08-18T03:16:58;99444.78;;;20.58;100.00
11041;BME280;5573;49.592;8.662;2022-08-18T03:19:46;99444.06;;;20.44;100.00
11041;BME280;5573;49.592;8.662;2022-08-18T03:22:39;99368.06;;;19.87;100.00
11041;BME280;5573;49.592;8.662;2022-08-18T03:25:27;99448.44;;;20.45;100.00
11041;BME280;5573;49.592;8.662;2022-08-18T03:28:16;99445.72;;;20.33;100.00
11041;BME280;5573;49.592;8.662;2022-08-18T03:31:04;99429.69;;;20.24;100.00
11041;BME280;5573;49.592;8.662;2022-08-18T03:33:53;99439.09;;;20.39;100.00
11041;BME280;5573;49.592;8.662;2022-08-18T03:36:45;99443.91;;;20.39;100.00
11041;BME280;5573;49.592;8.662;2022-08-18T03:39:34;99442.44;;;20.34;100.00
11041;BME280;5573;49.592;8.662;2022-08-18T03:42:23;99431.59;;;20.36;100.00
11041;BME280;5573;49.592;8.662;2022-08-18T03:45:11;99428.34;;;20.38;100.00
11041;BME280;5573;49.592;8.662;2022-08-18T03:48:04;99431.78;;;20.42;100.00
11041;BME280;5573;49.592;8.662;2022-08-18T03:50:52;99429.44;;;20.40;100.00
11041;BME280;5573;49.592;8.662;2022-08-18T03:53:40;99432.09;;;20.35;100.00
11041;BME280;5573;49.592;8.662;2022-08-18T03:56:32;99428.50;;;20.34;100.00
11041;BME280;5573;49.592;8.662;2022-08-18T03:59:22;99428.00;;;20.26;100.00
11041;BME280;5573;49.592;8.662;2022-08-18T04:02:11;99427.34;;;20.22;100.00
11041;BME280;5573;49.592;8.662;2022-08-18T04:04:59;99424.13;;;20.24;100.00
11041;BME280;5573;49.592;8.662;2022-08-18T04:07:51;99416.75;;;20.17;100.00
11041;BME280;5573;49.592;8.662;2022-08-18T04:10:43;99419.31;;;20.24;100.00
11041;BME280;5573;49.592;8.662;2022-08-18T04:13:32;99424.72;;;20.28;100.00
11041;BME280;5573;49.592;8.662;2022-08-18T04:16:23;99425.97;;;20.27;100.00
11041;BME280;5573;49.592;8.662;2022-08-18T04:19:11;99430.16;;;20.22;100.00
11041;BME280;5573;49.592;8.662;2022-08-18T04:22:12;99440.22;;;20.20;100.00
11041;BME280;5573;49.592;8.662;2022-08-18T04:25:04;99426.28;;;20.20;100.00
11041;BME280;5573;49.592;8.662;2022-08-18T04:27:55;99430.59;;;20.21;100.00
11041;BME280;5573;49.592;8.662;2022-08-18T04:30:47;99428.53;;;20.12;100.00
11041;BME280;5573;49.592;8.662;2022-08-18T04:33:36;99421.53;;;20.07;100.00
11041;BME280;5573;49.592;8.662;2022-08-18T04:36:25;99429.00;;;20.10;100.00
11041;BME280;5573;49.592;8.662;2022-08-18T04:39:14;99429.44;;;20.09;100.00
11041;BME280;5573;49.592;8.662;2022-08-18T04:42:02;99434.84;;;20.03;100.00
11041;BME280;5573;49.592;8.662;2022-08-18T04:44:51;99446.75;;;19.95;100.00
11041;BME280;5573;49.592;8.662;2022-08-18T04:47:41;99444.50;;;19.89;100.00
11041;BME280;5573;49.592;8.662;2022-08-18T04:50:30;99457.75;;;19.76;100.00
11041;BME280;5573;49.592;8.662;2022-08-18T04:53:18;99471.53;;;19.58;100.00
11041;BME280;5573;49.592;8.662;2022-08-18T04:56:27;99458.03;;;19.56;100.00
11041;BME280;5573;49.592;8.662;2022-08-18T04:59:15;99470.03;;;19.44;100.00
11041;BME280;5573;49.592;8.662;2022-08-18T05:02:04;99472.00;;;19.43;100.00
11041;BME280;5573;49.592;8.662;2022-08-18T05:05:01;99470.47;;;19.42;100.00
11041;BME280;5573;49.592;8.662;2022-08-18T05:07:50;99468.44;;;19.43;100.00
11041;BME280;5573;49.592;8.662;2022-08-18T05:10:38;99475.34;;;19.51;100.00
11041;BME280;5573;49.592;8.662;2022-08-18T05:13:27;99461.84;;;19.49;100.00
11041;BME280;5573;49.592;8.662;2022-08-18T05:16:15;99471.97;;;19.56;100.00
11041;BME280;5573;49.592;8.662;2022-08-18T05:19:14;99475.88;;;19.59;100.00
11041;BME280;5573;49.592;8.662;2022-08-18T05:22:06;99470.63;;;19.61;100.00
11041;BME280;5573;49.592;8.662;2022-08-18T05:24:54;99472.41;;;19.67;100.00
11041;BME280;5573;49.592;8.662;2022-08-18T05:27:43;99488.56;;;19.73;100.00
11041;BME280;5573;49.592;8.662;2022-08-18T05:30:32;99488.66;;;19.69;100.00
11041;BME280;5573;49.592;8.662;2022-08-18T05:33:20;99486.00;;;19.65;100.00
11041;BME280;5573;49.592;8.662;2022-08-18T05:36:14;99497.84;;;19.69;100.00
11041;BME280;5573;49.592;8.662;2022-08-18T05:39:13;99494.59;;;19.71;100.00
11041;BME280;5573;49.592;8.662;2022-08-18T05:42:05;99500.06;;;19.75;100.00
11041;BME280;5573;49.592;8.662;2022-08-18T05:44:54;99480.84;;;19.77;100.00
11041;BME280;5573;49.592;8.662;2022-08-18T05:47:43;99423.06;;;19.42;100.00
11041;BME280;5573;49.592;8.662;2022-08-18T05:50:33;99484.50;;;19.86;100.00
11041;BME280;5573;49.592;8.662;2022-08-18T05:53:22;99483.75;;;19.86;100.00
11041;BME280;5573;49.592;8.662;2022-08-18T05:56:35;99467.00;;;19.86;100.00
11041;BME280;5573;49.592;8.662;2022-08-18T05:59:34;99467.88;;;19.83;100.00
11041;BME280;5573;49.592;8.662;2022-08-18T06:02:30;99472.56;;;19.86;100.00
11041;BME280;5573;49.592;8.662;2022-08-18T06:05:23;99464.81;;;19.90;100.00
11041;BME280;5573;49.592;8.662;2022-08-18T06:08:13;99464.06;;;19.89;100.00
11041;BME280;5573;49.592;8.662;2022-08-18T06:11:03;99461.16;;;19.93;100.00
11041;BME280;5573;49.592;8.662;2022-08-18T06:14:04;99466.59;;;19.97;100.00
11041;BME280;5573;49.592;8.662;2022-08-18T06:16:59;99464.19;;;20.08;100.00
11041;BME280;5573;49.592;8.662;2022-08-18T06:19:55;99461.13;;;20.15;100.00
11041;BME280;5573;49.592;8.662;2022-08-18T06:22:52;99461.53;;;20.26;100.00
11041;BME280;5573;49.592;8.662;2022-08-18T06:25:53;99458.50;;;20.43;100.00
11041;BME280;5573;49.592;8.662;2022-08-18T06:28:50;99460.25;;;20.49;100.00
11041;BME280;5573;49.592;8.662;2022-08-18T06:31:52;99471.38;;;20.71;100.00
11041;BME280;5573;49.592;8.662;2022-08-18T06:34:56;99470.19;;;20.82;100.00
11041;BME280;5573;49.592;8.662;2022-08-18T06:37:55;99475.31;;;20.83;100.00
11041;BME280;5573;49.592;8.662;2022-08-18T06:41:09;99472.69;;;20.89;100.00
11041;BME280;5573;49.592;8.662;2022-08-18T06:44:22;99476.53;;;20.82;100.00
11041;BME280;5573;49.592;8.662;2022-08-18T06:47:13;99482.44;;;20.75;100.00
11041;BME280;5573;49.592;8.662;2022-08-18T06:50:07;99484.47;;;20.75;100.00
11041;BME280;5573;49.592;8.662;2022-08-18T06:52:59;99486.13;;;20.72;100.00
11041;BME280;5573;49.592;8.662;2022-08-18T06:55:49;99489.56;;;20.76;100.00
11041;BME280;5573;49.592;8.662;2022-08-18T06:58:38;99495.03;;;20.80;100.00
11041;BME280;5573;49.592;8.662;2022-08-18T07:01:26;99495.84;;;20.89;100.00
11041;BME280;5573;49.592;8.662;2022-08-18T07:04:37;99492.41;;;20.85;100.00
11041;BME280;5573;49.592;8.662;2022-08-18T07:07:32;99499.69;;;20.83;100.00
11041;BME280;5573;49.592;8.662;2022-08-18T07:10:39;99506.81;;;20.75;100.00
11041;BME280;5573;49.592;8.662;2022-08-18T07:13:29;99512.66;;;20.67;100.00
11041;BME280;5573;49.592;8.662;2022-08-18T07:16:21;99520.56;;;20.60;100.00
11041;BME280;5573;49.592;8.662;2022-08-18T07:19:30;99518.97;;;20.59;100.00
11041;BME280;5573;49.592;8.662;2022-08-18T07:22:20;99510.84;;;20.51;100.00
11041;BME280;5573;49.592;8.662;2022-08-18T07:25:27;99506.25;;;20.58;100.00
11041;BME280;5573;49.592;8.662;2022-08-18T07:28:27;99509.06;;;20.58;100.00
11041;BME280;5573;49.592;8.662;2022-08-18T07:31:34;99507.19;;;20.64;100.00
11041;BME280;5573;49.592;8.662;2022-08-18T07:34:26;99514.06;;;20.72;100.00
11041;BME280;5573;49.592;8.662;2022-08-18T07:37:18;99504.72;;;20.66;100.00
11041;BME280;5573;49.592;8.662;2022-08-18T07:40:23;99517.16;;;20.65;100.00
11041;BME280;5573;49.592;8.662;2022-08-18T07:43:16;99523.53;;;20.65;100.00
11041;BME280;5573;49.592;8.662;2022-08-18T07:46:14;99526.50;;;20.71;100.00
11041;BME280;5573;49.592;8.662;2022-08-18T07:49:05;99537.78;;;20.89;100.00
11041;BME280;5573;49.592;8.662;2022-08-18T07:51:58;99527.06;;;20.97;100.00
11041;BME280;5573;49.592;8.662;2022-08-18T07:54:58;99522.66;;;21.18;100.00
11041;BME280;5573;49.592;8.662;2022-08-18T07:57:55;99536.38;;;21.35;100.00
11041;BME280;5573;49.592;8.662;2022-08-18T08:00:50;99528.75;;;21.35;100.00
11041;BME280;5573;49.592;8.662;2022-08-18T08:03:51;99522.28;;;21.57;100.00
11041;BME280;5573;49.592;8.662;2022-08-18T08:06:44;99520.59;;;21.78;100.00
11041;BME280;5573;49.592;8.662;2022-08-18T08:10:10;99515.78;;;21.69;100.00
11041;BME280;5573;49.592;8.662;2022-08-18T08:13:13;99517.81;;;21.68;100.00
11041;BME280;5573;49.592;8.662;2022-08-18T08:16:33;99513.91;;;21.75;100.00
11041;BME280;5573;49.592;8.662;2022-08-18T08:19:44;99525.56;;;21.64;100.00
11041;BME280;5573;49.592;8.662;2022-08-18T08:22:59;99516.72;;;21.66;100.00
11041;BME280;5573;49.592;8.662;2022-08-18T08:25:57;99522.94;;;21.70;100.00
11041;BME280;5573;49.592;8.662;2022-08-18T08:28:56;99518.25;;;21.67;100.00
11041;BME280;5573;49.592;8.662;2022-08-18T08:31:53;99505.38;;;21.69;100.00
11041;BME280;5573;49.592;8.662;2022-08-18T08:34:48;99510.03;;;21.82;100.00
11041;BME280;5573;49.592;8.662;2022-08-18T08:37:42;99516.13;;;21.80;100.00
11041;BME280;5573;49.592;8.662;2022-08-18T08:40:37;99511.28;;;21.90;100.00
11041;BME280;5573;49.592;8.662;2022-08-18T08:43:31;99507.69;;;21.71;100.00
11041;BME280;5573;49.592;8.662;2022-08-18T08:46:25;99511.44;;;21.68;100.00
11041;BME280;5573;49.592;8.662;2022-08-18T08:49:29;99507.53;;;21.56;100.00
11041;BME280;5573;49.592;8.662;2022-08-18T08:52:23;99528.06;;;21.53;100.00
11041;BME280;5573;49.592;8.662;2022-08-18T08:55:16;99526.03;;;21.44;100.00
11041;BME280;5573;49.592;8.662;2022-08-18T08:58:16;99541.97;;;21.35;100.00
11041;BME280;5573;49.592;8.662;2022-08-18T09:01:15;99529.94;;;21.16;100.00
11041;BME280;5573;49.592;8.662;2022-08-18T09:04:21;99559.97;;;21.24;100.00
11041;BME280;5573;49.592;8.662;2022-08-18T09:07:25;99491.06;;;20.68;100.00
11041;BME280;5573;49.592;8.662;2022-08-18T09:10:58;99578.91;;;21.20;100.00
11041;BME280;5573;49.592;8.662;2022-08-18T09:17:15;99573.28;;;21.11;100.00
11041;BME280;5573;49.592;8.662;2022-08-18T09:20:36;99570.03;;;21.13;100.00
11041;BME280;5573;49.592;8.662;2022-08-18T09:23:40;99577.03;;;21.17;100.00
11041;BME280;5573;49.592;8.662;2022-08-18T09:26:39;99573.69;;;21.31;100.00
11041;BME280;5573;49.592;8.662;2022-08-18T09:29:52;99498.03;;;20.63;100.00
11041;BME280;5573;49.592;8.662;2022-08-18T09:32:51;99609.66;;;21.11;100.00
11041;BME280;5573;49.592;8.662;2022-08-18T09:35:54;99609.53;;;20.92;100.00
11041;BME280;5573;49.592;8.662;2022-08-18T09:38:51;99600.41;;;20.70;100.00
11041;BME280;5573;49.592;8.662;2022-08-18T09:42:06;99605.53;;;20.71;100.00
11041;BME280;5573;49.592;8.662;2022-08-18T09:45:05;99577.13;;;20.73;100.00
11041;BME280;5573;49.592;8.662;2022-08-18T09:47:59;99569.19;;;20.94;100.00
11041;BME280;5573;49.592;8.662;2022-08-18T09:51:14;99570.56;;;21.29;100.00
11041;BME280;5573;49.592;8.662;2022-08-18T09:54:13;99544.66;;;21.47;100.00
11041;BME280;5573;49.592;8.662;2022-08-18T09:57:21;99578.47;;;21.90;100.00
11041;BME280;5573;49.592;8.662;2022-08-18T10:00:26;99569.16;;;22.11;100.00
11041;BME280;5573;49.592;8.662;2022-08-18T10:03:22;99565.13;;;22.40;100.00
11041;BME280;5573;49.592;8.662;2022-08-18T10:06:20;99571.03;;;22.42;100.00
11041;BME280;5573;49.592;8.662;2022-08-18T10:09:22;99567.16;;;22.40;100.00
11041;BME280;5573;49.592;8.662;2022-08-18T10:12:34;99565.59;;;22.48;100.00
11041;BME280;5573;49.592;8.662;2022-08-18T10:15:32;99570.44;;;22.29;100.00
11041;BME280;5573;49.592;8.662;2022-08-18T10:18:43;99569.97;;;22.30;100.00
11041;BME280;5573;49.592;8.662;2022-08-18T10:22:03;99556.06;;;22.55;100.00
11041;BME280;5573;49.592;8.662;2022-08-18T10:24:54;99547.41;;;22.86;100.00
11041;BME280;5573;49.592;8.662;2022-08-18T10:28:06;99563.78;;;23.30;100.00
11041;BME280;5573;49.592;8.662;2022-08-18T10:31:03;99565.75;;;23.05;100.00
11041;BME280;5573;49.592;8.662;2022-08-18T10:34:02;99558.31;;;22.84;100.00
11041;BME280;5573;49.592;8.662;2022-08-18T10:37:11;99560.66;;;22.85;100.00
11041;BME280;5573;49.592;8.662;2022-08-18T10:40:13;99556.41;;;22.99;100.00
11041;BME280;5573;49.592;8.662;2022-08-18T10:43:09;99562.75;;;23.18;100.00
11041;BME280;5573;49.592;8.662;2022-08-18T10:46:20;99516.16;;;22.69;100.00
11041;BME280;5573;49.592;8.662;2022-08-18T10:49:20;99543.84;;;22.85;100.00
11041;BME280;5573;49.592;8.662;2022-08-18T10:52:33;99556.47;;;22.81;100.00
11041;BME280;5573;49.592;8.662;2022-08-18T10:55:44;99546.47;;;22.89;100.00
11041;BME280;5573;49.592;8.662;2022-08-18T10:58:45;99530.97;;;23.12;100.00
11041;BME280;5573;49.592;8.662;2022-08-18T11:01:58;99521.91;;;23.65;100.00
11041;BME280;5573;49.592;8.662;2022-08-18T11:04:50;99505.47;;;23.97;100.00
11041;BME280;5573;49.592;8.662;2022-08-18T11:07:47;99484.84;;;24.45;100.00
11041;BME280;5573;49.592;8.662;2022-08-18T11:10:44;99480.78;;;24.75;100.00
11041;BME280;5573;49.592;8.662;2022-08-18T11:14:13;99481.16;;;24.83;100.00
11041;BME280;5573;49.592;8.662;2022-08-18T11:17:08;99475.91;;;24.91;100.00
11041;BME280;5573;49.592;8.662;2022-08-18T11:20:05;99478.53;;;24.94;100.00
11041;BME280;5573;49.592;8.662;2022-08-18T11:22:58;99483.41;;;25.14;100.00
11041;BME280;5573;49.592;8.662;2022-08-18T11:25:48;99449.28;;;25.07;98.28
11041;BME280;5573;49.592;8.662;2022-08-18T11:28:36;99447.81;;;25.32;99.91
11041;BME280;5573;49.592;8.662;2022-08-18T11:31:32;99451.06;;;25.45;99.09
11041;BME280;5573;49.592;8.662;2022-08-18T11:34:29;99457.03;;;25.53;98.18
11041;BME280;5573;49.592;8.662;2022-08-18T11:37:25;99453.59;;;25.43;97.43
11041;BME280;5573;49.592;8.662;2022-08-18T11:40:38;99456.94;;;25.88;96.22
11041;BME280;5573;49.592;8.662;2022-08-18T11:43:47;99464.16;;;25.69;95.52
11041;BME280;5573;49.592;8.662;2022-08-18T11:46:42;99459.66;;;25.36;98.30
11041;BME280;5573;49.592;8.662;2022-08-18T11:49:47;99475.78;;;25.56;96.53
11041;BME280;5573;49.592;8.662;2022-08-18T11:52:48;99467.91;;;25.60;94.67
11041;BME280;5573;49.592;8.662;2022-08-18T11:55:41;99471.81;;;25.89;93.09
11041;BME280;5573;49.592;8.662;2022-08-18T11:58:40;99458.56;;;26.21;91.32
11041;BME280;5573;49.592;8.662;2022-08-18T12:01:37;99454.47;;;26.22;88.64
11041;BME280;5573;49.592;8.662;2022-08-18T12:04:36;99447.50;;;26.17;88.07
11041;BME280;5573;49.592;8.662;2022-08-18T12:07:27;99453.44;;;26.83;81.31
11041;BME280;5573;49.592;8.662;2022-08-18T12:10:20;99449.31;;;26.79;79.83
11041;BME280;5573;49.592;8.662;2022-08-18T12:13:23;99447.66;;;27.04;76.88
11041;BME280;5573;49.592;8.662;2022-08-18T12:16:15;99454.16;;;27.21;73.01
11041;BME280;5573;49.592;8.662;2022-08-18T12:19:06;99447.31;;;27.33;73.21
11041;BME280;5573;49.592;8.662;2022-08-18T12:22:17;99431.22;;;26.96;73.70
11041;BME280;5573;49.592;8.662;2022-08-18T12:25:08;99439.69;;;26.65;76.47
11041;BME280;5573;49.592;8.662;2022-08-18T12:27:58;99442.03;;;26.66;74.41
11041;BME280;5573;49.592;8.662;2022-08-18T12:30:48;99454.88;;;26.67;74.12
11041;BME280;5573;49.592;8.662;2022-08-18T12:33:43;99437.53;;;26.80;71.72
11041;BME280;5573;49.592;8.662;2022-08-18T12:36:45;99436.72;;;26.74;70.78
11041;BME280;5573;49.592;8.662;2022-08-18T12:39:34;99436.31;;;26.92;72.51
11041;BME280;5573;49.592;8.662;2022-08-18T12:42:24;99436.50;;;27.26;70.88
11041;BME280;5573;49.592;8.662;2022-08-18T12:45:13;99438.53;;;27.26;69.66
11041;BME280;5573;49.592;8.662;2022-08-18T12:48:03;99430.41;;;26.96;70.56
11041;BME280;5573;49.592;8.662;2022-08-18T12:50:52;99427.09;;;26.60;74.25
11041;BME280;5573;49.592;8.662;2022-08-18T12:53:45;99422.44;;;25.93;79.73
11041;BME280;5573;49.592;8.662;2022-08-18T12:56:54;99419.75;;;25.84;80.44
11041;BME280;5573;49.592;8.662;2022-08-18T12:59:43;99416.50;;;26.17;80.18
11041;BME280;5573;49.592;8.662;2022-08-18T13:02:32;99424.69;;;26.15;77.54
11041;BME280;5573;49.592;8.662;2022-08-18T13:05:22;99414.03;;;26.31;74.66
11041;BME280;5573;49.592;8.662;2022-08-18T13:08:18;99405.75;;;26.91;69.27
11041;BME280;5573;49.592;8.662;2022-08-18T13:11:19;99408.50;;;27.23;71.65
11041;BME280;5573;49.592;8.662;2022-08-18T13:14:12;99395.72;;;26.84;68.09
11041;BME280;5573;49.592;8.662;2022-08-18T13:17:01;99397.69;;;26.72;67.37
11041;BME280;5573;49.592;8.662;2022-08-18T13:19:54;99397.91;;;26.63;69.81
11041;BME280;5573;49.592;8.662;2022-08-18T13:22:44;99393.97;;;26.92;70.10
11041;BME280;5573;49.592;8.662;2022-08-18T13:25:36;99402.50;;;27.04;68.13
11041;BME280;5573;49.592;8.662;2022-08-18T13:28:25;99395.72;;;26.84;70.73
11041;BME280;5573;49.592;8.662;2022-08-18T13:31:16;99396.34;;;26.25;72.34
11041;BME280;5573;49.592;8.662;2022-08-18T13:34:09;99369.94;;;25.96;72.61
11041;BME280;5573;49.592;8.662;2022-08-18T13:37:06;99311.81;;;25.99;70.21
11041;BME280;5573;49.592;8.662;2022-08-18T13:39:55;99372.97;;;27.05;65.14
11041;BME280;5573;49.592;8.662;2022-08-18T13:42:45;99383.16;;;27.40;64.59
11041;BME280;5573;49.592;8.662;2022-08-18T13:45:46;99378.31;;;27.57;60.87
11041;BME280;5573;49.592;8.662;2022-08-18T13:48:41;99364.72;;;27.61;59.72
11041;BME280;5573;49.592;8.662;2022-08-18T13:51:30;99281.81;;;26.82;58.12
11041;BME280;5573;49.592;8.662;2022-08-18T13:54:22;99356.53;;;27.74;57.75
11041;BME280;5573;49.592;8.662;2022-08-18T13:57:21;99347.81;;;28.40;56.09
11041;BME280;5573;49.592;8.662;2022-08-18T14:00:10;99336.72;;;28.48;55.78
11041;BME280;5573;49.592;8.662;2022-08-18T14:03:06;99331.00;;;28.82;53.72
11041;BME280;5573;49.592;8.662;2022-08-18T14:05:55;99340.03;;;28.80;52.69
11041;BME280;5573;49.592;8.662;2022-08-18T14:08:47;99339.72;;;28.95;52.80
11041;BME280;5573;49.592;8.662;2022-08-18T14:11:36;99334.88;;;28.78;51.49
11041;BME280;5573;49.592;8.662;2022-08-18T14:14:29;99338.00;;;28.64;51.50
11041;BME280;5573;49.592;8.662;2022-08-18T14:17:17;99332.38;;;28.47;51.24
11041;BME280;5573;49.592;8.662;2022-08-18T14:20:09;99324.91;;;28.55;52.19
11041;BME280;5573;49.592;8.662;2022-08-18T14:23:34;99331.84;;;28.60;52.87
11041;BME280;5573;49.592;8.662;2022-08-18T14:26:40;99317.19;;;28.44;53.14
11041;BME280;5573;49.592;8.662;2022-08-18T14:29:38;99324.69;;;28.30;54.04
11041;BME280;5573;49.592;8.662;2022-08-18T14:32:33;99336.78;;;28.20;53.32
11041;BME280;5573;49.592;8.662;2022-08-18T14:35:35;99326.69;;;28.58;53.43
11041;BME280;5573;49.592;8.662;2022-08-18T14:38:44;99322.84;;;28.61;52.80
11041;BME280;5573;49.592;8.662;2022-08-18T14:41:39;99316.38;;;28.66;52.71
11041;BME280;5573;49.592;8.662;2022-08-18T14:44:43;99310.59;;;28.94;51.34
11041;BME280;5573;49.592;8.662;2022-08-18T14:47:32;99318.75;;;28.51;50.69
11041;BME280;5573;49.592;8.662;2022-08-18T14:50:23;99321.59;;;28.28;51.38
11041;BME280;5573;49.592;8.662;2022-08-18T14:53:12;99334.69;;;28.48;51.36
11041;BME280;5573;49.592;8.662;2022-08-18T14:56:02;99334.44;;;28.46;51.33
11041;BME280;5573;49.592;8.662;2022-08-18T14:58:51;99318.97;;;28.47;50.77
11041;BME280;5573;49.592;8.662;2022-08-18T15:01:42;99322.75;;;28.89;50.08
11041;BME280;5573;49.592;8.662;2022-08-18T15:04:32;99327.94;;;29.32;49.07
11041;BME280;5573;49.592;8.662;2022-08-18T15:07:40;99332.72;;;29.54;47.57
11041;BME280;5573;49.592;8.662;2022-08-18T15:10:31;99336.28;;;29.19;47.67
11041;BME280;5573;49.592;8.662;2022-08-18T15:13:19;99334.47;;;29.63;47.44
11041;BME280;5573;49.592;8.662;2022-08-18T15:16:13;99336.81;;;29.59;47.14
11041;BME280;5573;49.592;8.662;2022-08-18T15:19:02;99342.72;;;29.08;47.82
11041;BME280;5573;49.592;8.662;2022-08-18T15:22:11;99338.25;;;28.66;49.22
11041;BME280;5573;49.592;8.662;2022-08-18T15:25:18;99337.78;;;28.28;49.51
11041;BME280;5573;49.592;8.662;2022-08-18T15:28:30;99337.78;;;28.16;49.50
11041;BME280;5573;49.592;8.662;2022-08-18T15:31:19;99330.34;;;28.13;49.65
11041;BME280;5573;49.592;8.662;2022-08-18T15:34:29;99332.16;;;28.11;49.89
11041;BME280;5573;49.592;8.662;2022-08-18T15:37:18;99338.81;;;28.25;49.59
11041;BME280;5573;49.592;8.662;2022-08-18T15:40:13;99324.63;;;28.47;48.78